El Paso, TX (88581)

1:24 AM MDT on August 21, 2014 (GMT -0600)
Shock | Change Station
CLOSE
Current Station
Personal Weather Station
Location: El Paso, TX
Elevation: 3924 ft
Nearby Weather Stations

Elev 3924 ft 31.76 °N, 106.33 °W | Updated 8 minutes ago

Partly Cloudy
Partly Cloudy
77.0 °F
Feels Like 78 °F
N
1.7
Wind Variable Wind from North

Today
High -- | Low -- °F
--% Chance of Precip.
Yesterday
High -- | Low -- °F
Precip. -- in
6:34 AM 7:42 PM
Waning Crescent, 16% visible
Pressure 29.77 in
Visibility 10.0 miles
Clouds Few 25000 ft
Heat Index 78 °F
Dew Point 50 °F
Humidity 39%
Rainfall 0.00 in
Snow Depth Not available.
UV 0 out of 12
Pollen 6.90 out of 12
Air Quality Not available.
Flu Activity Not available.
METAR KELP 210651Z 28007G18KT 10SM FEW250 27/09 A3000 RMK AO2 SLP079 T02720089 403330206

More Conditions Fewer Conditions

Pressure 29.77 in
Visibility 10.0 miles
Clouds Few 25000 ft
Heat Index 78 °F
Dew Point 50 °F
Humidity 39%
Rainfall 0.00 in
Snow Depth Not available.
UV 0 out of 12
Pollen 6.90 out of 12
Air Quality Not available.
Flu Activity Not available.
METAR KELP 210651Z 28007G18KT 10SM FEW250 27/09 A3000 RMK AO2 SLP079 T02720089 403330206

More Conditions Fewer Conditions

10-Day Weather Forecast

Almanac

Astronomy

Aug. 21, 2014 Rise Set
Actual Time 6:34 AM MDT 7:42 PM MDT
Civil Twilight 6:08 AM MDT 8:07 PM MDT
Nautical Twilight 5:38 AM MDT 8:37 PM MDT
Astronomical Twilight 5:07 AM MDT 9:08 PM MDT
Moon 3:12 AM MDT 5:07 PM MDT
Length of Visible Light 13h 58m
Length of Day
13h 08m
Tomorrow will be 1m 45s shorter.
Waning Crescent, 16% of the Moon is Illuminated
Today
Waning Crescent
Aug 25
New
Sep 2
First Quarter
Sep 8
Full
Sep 15
Last Quarter

Today's Extremes

State Highs State Lows

Community

WunderPhotos

Upload Photos

1,745,858 photos uploaded!

Nearby

Snow Depth

Station Depth Elevation
No new snow has been reported.

Earthquake Activity

City Distance Mag. Time & Date
No recent earthquake activity has been reported nearby.
Minimum magnitude displayed is 2.5.

Coastal Water Temperatures

Place Temperature
No Stations Reporting

Nearby Weather Stations